San Antonio International Airport
KSAT : now visible

Airfield :











YOU CAN JOIN US ON...

 
LOGIN :

Register | Disclaimer

   EN    FR    IT 

 









Legend :    VFR   Marginal VFR   IFR   Intensive IFR   Very Intensive IFR
Visi :
Ceiling :
>= 8 km
>= 3000ft
5 to 8 km
1000 to 3000 ft
1500m to 5 km
500 to 1000 ft
800 to 1500m
200 to 500 ft
< 800m
< 200 ft
Symbols :   Thunderstorms  Fog  Heavy snow  Heavy precipitations  Wind > 20 kt






- Airport Elevation : 809 ft
- IATA code : SAT


KSAT - San Antonio International

CURRENT METAR :
  • 082051Z 19010KT 10SM BKN250 23/13 A2994 RMK AO2 SLP127 T02280128 56033

EXPIRED METARs :
  • 081951Z 19010KT 10SM BKN250 23/12 A2996 RMK AO2 SLP131 T02280122
  • 081851Z 21008KT 10SM BKN250 20/13 A3000 RMK AO2 SLP146 T02000128

TAF KSAT
Valid from the 08 at 18:00 until the 10 at 00:00 UTC


081733Z 0818/0924 18010KT P6SM SCT005
FM090000 18012KT P6SM SCT025 BKN250
FM090900 20004KT 2SM BR OVC005
FM091000 20004KT 1SM BR OVC002
FM091700 20004KT 4SM BR BKN005 BKN250
FM091800 21009KT P6SM FEW020 BKN250



MET'MAP, your aeronautical weather chart ! - Copyright ORBIFLY December 2007 - Disclaimer

ORBIFLY MET'MAP TEAM :

Programming & Development : Alexandra Zaïnal
Concept & original design : Baudouin d'Aumeries
Assistance for programming : Marc-Olivier Méhu
Technical & hardware support : Manuel Goepfert

Contact : metmap@orbifly.com




SOURCES & CREDITS :

   NOAA       Earth
Advisory